sensor_id;sensor_type;location;lat;lon;timestamp;P1;durP1;ratioP1;P2;durP2;ratioP2
79412;SDS011;68863;49.528;11.010;2024-02-15T00:00:35;7.20;;;2.50;;
79412;SDS011;68863;49.528;11.010;2024-02-15T00:01:35;6.43;;;2.63;;
79412;SDS011;68863;49.528;11.010;2024-02-15T00:02:36;5.55;;;2.40;;
79412;SDS011;68863;49.528;11.010;2024-02-15T00:03:36;6.38;;;2.60;;
79412;SDS011;68863;49.528;11.010;2024-02-15T00:04:37;5.68;;;2.05;;
79412;SDS011;68863;49.528;11.010;2024-02-15T00:05:37;6.00;;;2.20;;
79412;SDS011;68863;49.528;11.010;2024-02-15T00:06:37;7.10;;;2.70;;
79412;SDS011;68863;49.528;11.010;2024-02-15T00:07:38;5.85;;;2.28;;
79412;SDS011;68863;49.528;11.010;2024-02-15T00:08:39;4.80;;;2.05;;
79412;SDS011;68863;49.528;11.010;2024-02-15T00:09:39;6.75;;;2.53;;
79412;SDS011;68863;49.528;11.010;2024-02-15T00:10:39;6.32;;;2.65;;
79412;SDS011;68863;49.528;11.010;2024-02-15T00:11:40;5.60;;;2.40;;
79412;SDS011;68863;49.528;11.010;2024-02-15T00:12:40;6.60;;;2.42;;
79412;SDS011;68863;49.528;11.010;2024-02-15T00:13:40;8.00;;;2.88;;
79412;SDS011;68863;49.528;11.010;2024-02-15T00:14:41;7.05;;;2.70;;
79412;SDS011;68863;49.528;11.010;2024-02-15T00:15:42;6.13;;;2.50;;
79412;SDS011;68863;49.528;11.010;2024-02-15T00:16:43;6.57;;;2.50;;
79412;SDS011;68863;49.528;11.010;2024-02-15T00:17:43;6.00;;;2.65;;
79412;SDS011;68863;49.528;11.010;2024-02-15T00:18:43;6.32;;;2.75;;
79412;SDS011;68863;49.528;11.010;2024-02-15T00:19:44;7.13;;;2.20;;
79412;SDS011;68863;49.528;11.010;2024-02-15T00:20:46;8.07;;;2.58;;
79412;SDS011;68863;49.528;11.010;2024-02-15T00:21:47;6.50;;;2.00;;
79412;SDS011;68863;49.528;11.010;2024-02-15T00:22:47;5.50;;;2.42;;
79412;SDS011;68863;49.528;11.010;2024-02-15T00:23:48;6.00;;;2.50;;
79412;SDS011;68863;49.528;11.010;2024-02-15T00:24:49;6.50;;;2.53;;
79412;SDS011;68863;49.528;11.010;2024-02-15T00:25:49;10.40;;;2.58;;
79412;SDS011;68863;49.528;11.010;2024-02-15T00:26:49;5.75;;;2.10;;
79412;SDS011;68863;49.528;11.010;2024-02-15T00:27:50;5.57;;;2.08;;
79412;SDS011;68863;49.528;11.010;2024-02-15T00:28:50;6.05;;;1.70;;
79412;SDS011;68863;49.528;11.010;2024-02-15T00:29:51;6.80;;;2.30;;
79412;SDS011;68863;49.528;11.010;2024-02-15T00:30:51;6.43;;;2.05;;
79412;SDS011;68863;49.528;11.010;2024-02-15T00:31:51;5.68;;;2.63;;
79412;SDS011;68863;49.528;11.010;2024-02-15T00:32:52;6.78;;;2.38;;
79412;SDS011;68863;49.528;11.010;2024-02-15T00:33:52;5.22;;;2.17;;
79412;SDS011;68863;49.528;11.010;2024-02-15T00:34:53;6.15;;;2.40;;
79412;SDS011;68863;49.528;11.010;2024-02-15T00:35:54;4.85;;;2.20;;
79412;SDS011;68863;49.528;11.010;2024-02-15T00:36:54;6.43;;;2.83;;
79412;SDS011;68863;49.528;11.010;2024-02-15T00:37:55;5.82;;;2.22;;
79412;SDS011;68863;49.528;11.010;2024-02-15T00:38:55;5.28;;;2.35;;
79412;SDS011;68863;49.528;11.010;2024-02-15T00:39:56;5.88;;;2.03;;
79412;SDS011;68863;49.528;11.010;2024-02-15T00:40:56;7.18;;;2.25;;
79412;SDS011;68863;49.528;11.010;2024-02-15T00:41:56;5.50;;;2.03;;
79412;SDS011;68863;49.528;11.010;2024-02-15T00:42:57;5.82;;;1.90;;
79412;SDS011;68863;49.528;11.010;2024-02-15T00:43:57;5.63;;;2.25;;
79412;SDS011;68863;49.528;11.010;2024-02-15T00:44:58;6.25;;;2.40;;
79412;SDS011;68863;49.528;11.010;2024-02-15T00:45:58;5.80;;;2.55;;
79412;SDS011;68863;49.528;11.010;2024-02-15T00:46:59;5.88;;;2.20;;
79412;SDS011;68863;49.528;11.010;2024-02-15T00:47:59;4.68;;;1.83;;
79412;SDS011;68863;49.528;11.010;2024-02-15T00:48:59;6.65;;;2.28;;
79412;SDS011;68863;49.528;11.010;2024-02-15T00:50:00;5.68;;;2.33;;
79412;SDS011;68863;49.528;11.010;2024-02-15T00:51:00;7.22;;;2.17;;
79412;SDS011;68863;49.528;11.010;2024-02-15T00:52:00;6.13;;;2.30;;
79412;SDS011;68863;49.528;11.010;2024-02-15T00:53:01;5.60;;;2.00;;
79412;SDS011;68863;49.528;11.010;2024-02-15T00:54:02;6.03;;;2.25;;
79412;SDS011;68863;49.528;11.010;2024-02-15T00:55:03;6.25;;;2.53;;
79412;SDS011;68863;49.528;11.010;2024-02-15T00:56:03;5.65;;;2.17;;
79412;SDS011;68863;49.528;11.010;2024-02-15T00:57:04;5.28;;;2.15;;
79412;SDS011;68863;49.528;11.010;2024-02-15T00:58:05;6.10;;;2.80;;
79412;SDS011;68863;49.528;11.010;2024-02-15T00:59:05;6.03;;;2.25;;
79412;SDS011;68863;49.528;11.010;2024-02-15T01:00:06;7.18;;;2.78;;
79412;SDS011;68863;49.528;11.010;2024-02-15T01:01:09;5.70;;;2.53;;
79412;SDS011;68863;49.528;11.010;2024-02-15T01:02:11;6.85;;;2.70;;
79412;SDS011;68863;49.528;11.010;2024-02-15T01:03:12;6.72;;;2.63;;
79412;SDS011;68863;49.528;11.010;2024-02-15T01:04:13;5.55;;;2.42;;
79412;SDS011;68863;49.528;11.010;2024-02-15T01:05:13;6.50;;;2.80;;
79412;SDS011;68863;49.528;11.010;2024-02-15T01:06:15;5.40;;;2.20;;
79412;SDS011;68863;49.528;11.010;2024-02-15T01:07:15;6.13;;;2.30;;
79412;SDS011;68863;49.528;11.010;2024-02-15T01:08:16;4.97;;;2.15;;
79412;SDS011;68863;49.528;11.010;2024-02-15T01:09:16;7.00;;;2.75;;
79412;SDS011;68863;49.528;11.010;2024-02-15T01:10:17;5.28;;;2.10;;
79412;SDS011;68863;49.528;11.010;2024-02-15T01:11:17;5.35;;;2.42;;
79412;SDS011;68863;49.528;11.010;2024-02-15T01:12:17;5.70;;;2.60;;
79412;SDS011;68863;49.528;11.010;2024-02-15T01:13:18;4.95;;;2.00;;
79412;SDS011;68863;49.528;11.010;2024-02-15T01:14:18;5.68;;;2.90;;
79412;SDS011;68863;49.528;11.010;2024-02-15T01:15:19;5.65;;;2.72;;
79412;SDS011;68863;49.528;11.010;2024-02-15T01:16:20;5.85;;;2.45;;
79412;SDS011;68863;49.528;11.010;2024-02-15T01:17:24;7.85;;;2.65;;
79412;SDS011;68863;49.528;11.010;2024-02-15T01:18:24;6.47;;;2.70;;
79412;SDS011;68863;49.528;11.010;2024-02-15T01:19:26;6.30;;;2.65;;
79412;SDS011;68863;49.528;11.010;2024-02-15T01:20:27;7.40;;;2.60;;
79412;SDS011;68863;49.528;11.010;2024-02-15T01:21:28;6.25;;;2.60;;
79412;SDS011;68863;49.528;11.010;2024-02-15T01:22:28;6.28;;;2.33;;
79412;SDS011;68863;49.528;11.010;2024-02-15T01:23:29;7.32;;;2.70;;
79412;SDS011;68863;49.528;11.010;2024-02-15T01:24:29;5.28;;;2.47;;
79412;SDS011;68863;49.528;11.010;2024-02-15T01:25:30;7.18;;;2.35;;
79412;SDS011;68863;49.528;11.010;2024-02-15T01:26:30;5.93;;;2.42;;
79412;SDS011;68863;49.528;11.010;2024-02-15T01:27:31;5.60;;;2.40;;
79412;SDS011;68863;49.528;11.010;2024-02-15T01:28:31;6.18;;;2.40;;
79412;SDS011;68863;49.528;11.010;2024-02-15T01:29:32;7.38;;;2.83;;
79412;SDS011;68863;49.528;11.010;2024-02-15T01:30:32;5.85;;;2.22;;
79412;SDS011;68863;49.528;11.010;2024-02-15T01:31:32;6.10;;;2.47;;
79412;SDS011;68863;49.528;11.010;2024-02-15T01:32:33;5.63;;;2.47;;
79412;SDS011;68863;49.528;11.010;2024-02-15T01:33:33;6.43;;;2.35;;
79412;SDS011;68863;49.528;11.010;2024-02-15T01:34:34;6.20;;;2.45;;
79412;SDS011;68863;49.528;11.010;2024-02-15T01:35:34;6.05;;;2.88;;
79412;SDS011;68863;49.528;11.010;2024-02-15T01:36:35;8.55;;;3.20;;
79412;SDS011;68863;49.528;11.010;2024-02-15T01:37:35;6.95;;;2.80;;
79412;SDS011;68863;49.528;11.010;2024-02-15T01:38:37;7.55;;;2.80;;
79412;SDS011;68863;49.528;11.010;2024-02-15T01:39:37;6.20;;;2.42;;
79412;SDS011;68863;49.528;11.010;2024-02-15T01:40:37;6.35;;;2.60;;
79412;SDS011;68863;49.528;11.010;2024-02-15T01:41:38;7.38;;;2.85;;
79412;SDS011;68863;49.528;11.010;2024-02-15T01:42:38;6.38;;;2.70;;
79412;SDS011;68863;49.528;11.010;2024-02-15T01:43:45;5.97;;;2.20;;
79412;SDS011;68863;49.528;11.010;2024-02-15T01:44:47;6.53;;;2.35;;
79412;SDS011;68863;49.528;11.010;2024-02-15T01:45:49;7.57;;;2.83;;
79412;SDS011;68863;49.528;11.010;2024-02-15T01:46:51;7.03;;;2.67;;
79412;SDS011;68863;49.528;11.010;2024-02-15T01:47:54;5.82;;;2.55;;
79412;SDS011;68863;49.528;11.010;2024-02-15T01:48:55;7.28;;;2.30;;
79412;SDS011;68863;49.528;11.010;2024-02-15T01:49:56;6.78;;;2.83;;
79412;SDS011;68863;49.528;11.010;2024-02-15T01:50:57;7.55;;;2.50;;
79412;SDS011;68863;49.528;11.010;2024-02-15T01:51:58;6.47;;;2.50;;
79412;SDS011;68863;49.528;11.010;2024-02-15T01:53:03;6.93;;;2.25;;
79412;SDS011;68863;49.528;11.010;2024-02-15T01:54:07;6.15;;;2.65;;
79412;SDS011;68863;49.528;11.010;2024-02-15T01:55:07;7.10;;;2.50;;
79412;SDS011;68863;49.528;11.010;2024-02-15T01:56:08;7.47;;;2.97;;
79412;SDS011;68863;49.528;11.010;2024-02-15T01:57:11;8.75;;;2.97;;
79412;SDS011;68863;49.528;11.010;2024-02-15T01:58:12;7.13;;;2.97;;
79412;SDS011;68863;49.528;11.010;2024-02-15T01:59:14;7.22;;;2.25;;
79412;SDS011;68863;49.528;11.010;2024-02-15T02:00:16;6.57;;;2.50;;
79412;SDS011;68863;49.528;11.010;2024-02-15T02:01:18;6.80;;;2.38;;
79412;SDS011;68863;49.528;11.010;2024-02-15T02:02:20;6.80;;;2.70;;
79412;SDS011;68863;49.528;11.010;2024-02-15T02:03:22;6.50;;;2.45;;
79412;SDS011;68863;49.528;11.010;2024-02-15T02:04:23;5.93;;;2.58;;
79412;SDS011;68863;49.528;11.010;2024-02-15T02:05:23;6.45;;;2.40;;
79412;SDS011;68863;49.528;11.010;2024-02-15T02:06:24;7.15;;;3.00;;
79412;SDS011;68863;49.528;11.010;2024-02-15T02:07:24;8.63;;;2.63;;
79412;SDS011;68863;49.528;11.010;2024-02-15T02:08:26;8.95;;;3.05;;
79412;SDS011;68863;49.528;11.010;2024-02-15T02:09:26;6.50;;;2.80;;
79412;SDS011;68863;49.528;11.010;2024-02-15T02:10:27;6.90;;;2.80;;
79412;SDS011;68863;49.528;11.010;2024-02-15T02:11:32;6.72;;;2.70;;
79412;SDS011;68863;49.528;11.010;2024-02-15T02:12:33;8.88;;;2.70;;
79412;SDS011;68863;49.528;11.010;2024-02-15T02:13:33;7.90;;;3.45;;
79412;SDS011;68863;49.528;11.010;2024-02-15T02:14:35;7.15;;;2.58;;
79412;SDS011;68863;49.528;11.010;2024-02-15T02:15:35;8.32;;;2.95;;
79412;SDS011;68863;49.528;11.010;2024-02-15T02:16:37;10.25;;;2.60;;
79412;SDS011;68863;49.528;11.010;2024-02-15T02:17:39;8.90;;;2.92;;
79412;SDS011;68863;49.528;11.010;2024-02-15T02:18:40;8.70;;;2.67;;
79412;SDS011;68863;49.528;11.010;2024-02-15T02:19:41;6.65;;;3.10;;
79412;SDS011;68863;49.528;11.010;2024-02-15T02:20:42;6.95;;;3.13;;
79412;SDS011;68863;49.528;11.010;2024-02-15T02:21:43;8.07;;;2.67;;
79412;SDS011;68863;49.528;11.010;2024-02-15T02:22:45;7.75;;;2.42;;
79412;SDS011;68863;49.528;11.010;2024-02-15T02:23:48;6.68;;;2.40;;
79412;SDS011;68863;49.528;11.010;2024-02-15T02:26:06;6.15;;;2.95;;
79412;SDS011;68863;49.528;11.010;2024-02-15T02:27:07;7.32;;;2.78;;
79412;SDS011;68863;49.528;11.010;2024-02-15T02:28:08;6.57;;;2.67;;
79412;SDS011;68863;49.528;11.010;2024-02-15T02:29:08;7.70;;;2.45;;
79412;SDS011;68863;49.528;11.010;2024-02-15T02:30:13;7.78;;;3.38;;
79412;SDS011;68863;49.528;11.010;2024-02-15T02:31:15;7.70;;;2.72;;
79412;SDS011;68863;49.528;11.010;2024-02-15T02:32:15;6.78;;;2.58;;
79412;SDS011;68863;49.528;11.010;2024-02-15T02:33:16;5.90;;;2.53;;
79412;SDS011;68863;49.528;11.010;2024-02-15T02:34:22;7.13;;;2.75;;
79412;SDS011;68863;49.528;11.010;2024-02-15T02:35:22;7.32;;;3.38;;
79412;SDS011;68863;49.528;11.010;2024-02-15T02:36:23;7.32;;;2.60;;
79412;SDS011;68863;49.528;11.010;2024-02-15T02:37:26;8.07;;;2.90;;
79412;SDS011;68863;49.528;11.010;2024-02-15T02:38:27;6.40;;;2.80;;
79412;SDS011;68863;49.528;11.010;2024-02-15T02:39:27;6.78;;;2.72;;
79412;SDS011;68863;49.528;11.010;2024-02-15T02:40:31;5.18;;;2.50;;
79412;SDS011;68863;49.528;11.010;2024-02-15T02:41:31;8.88;;;3.03;;
79412;SDS011;68863;49.528;11.010;2024-02-15T02:42:32;7.50;;;2.83;;
79412;SDS011;68863;49.528;11.010;2024-02-15T02:43:32;6.40;;;2.60;;
79412;SDS011;68863;49.528;11.010;2024-02-15T02:44:32;7.60;;;2.65;;
79412;SDS011;68863;49.528;11.010;2024-02-15T02:45:33;6.50;;;2.50;;
79412;SDS011;68863;49.528;11.010;2024-02-15T02:46:33;6.28;;;2.30;;
79412;SDS011;68863;49.528;11.010;2024-02-15T02:47:33;6.40;;;2.55;;
79412;SDS011;68863;49.528;11.010;2024-02-15T02:48:34;6.28;;;2.33;;
79412;SDS011;68863;49.528;11.010;2024-02-15T02:49:37;6.93;;;2.60;;
79412;SDS011;68863;49.528;11.010;2024-02-15T02:50:37;5.55;;;2.40;;
79412;SDS011;68863;49.528;11.010;2024-02-15T02:51:38;7.38;;;2.10;;
79412;SDS011;68863;49.528;11.010;2024-02-15T02:52:38;7.63;;;2.45;;
79412;SDS011;68863;49.528;11.010;2024-02-15T02:53:39;6.68;;;2.33;;
79412;SDS011;68863;49.528;11.010;2024-02-15T02:54:39;5.78;;;2.40;;
79412;SDS011;68863;49.528;11.010;2024-02-15T02:55:40;6.32;;;1.90;;
79412;SDS011;68863;49.528;11.010;2024-02-15T02:56:41;6.30;;;2.33;;
79412;SDS011;68863;49.528;11.010;2024-02-15T02:57:43;5.03;;;1.90;;
79412;SDS011;68863;49.528;11.010;2024-02-15T02:58:44;5.93;;;2.20;;
79412;SDS011;68863;49.528;11.010;2024-02-15T02:59:44;6.72;;;2.08;;
79412;SDS011;68863;49.528;11.010;2024-02-15T03:00:45;6.07;;;2.10;;
79412;SDS011;68863;49.528;11.010;2024-02-15T03:01:46;5.63;;;2.08;;
79412;SDS011;68863;49.528;11.010;2024-02-15T03:02:47;6.88;;;2.05;;
79412;SDS011;68863;49.528;11.010;2024-02-15T03:03:47;7.13;;;1.88;;
79412;SDS011;68863;49.528;11.010;2024-02-15T03:04:48;5.43;;;2.15;;
79412;SDS011;68863;49.528;11.010;2024-02-15T03:05:48;5.90;;;2.00;;
79412;SDS011;68863;49.528;11.010;2024-02-15T03:06:48;5.70;;;2.03;;
79412;SDS011;68863;49.528;11.010;2024-02-15T03:07:49;5.72;;;1.77;;
79412;SDS011;68863;49.528;11.010;2024-02-15T03:08:51;4.72;;;1.80;;
79412;SDS011;68863;49.528;11.010;2024-02-15T03:09:54;5.22;;;1.92;;
79412;SDS011;68863;49.528;11.010;2024-02-15T03:10:55;5.75;;;1.88;;
79412;SDS011;68863;49.528;11.010;2024-02-15T03:11:55;5.35;;;1.90;;
79412;SDS011;68863;49.528;11.010;2024-02-15T03:12:57;5.38;;;1.80;;
79412;SDS011;68863;49.528;11.010;2024-02-15T03:13:57;5.65;;;1.92;;
79412;SDS011;68863;49.528;11.010;2024-02-15T03:14:59;4.75;;;1.85;;
79412;SDS011;68863;49.528;11.010;2024-02-15T03:15:59;6.40;;;2.60;;
79412;SDS011;68863;49.528;11.010;2024-02-15T03:17:00;4.78;;;2.08;;
79412;SDS011;68863;49.528;11.010;2024-02-15T03:18:03;5.75;;;2.20;;
79412;SDS011;68863;49.528;11.010;2024-02-15T03:19:09;5.60;;;2.03;;
79412;SDS011;68863;49.528;11.010;2024-02-15T03:20:12;4.32;;;1.60;;
79412;SDS011;68863;49.528;11.010;2024-02-15T03:21:21;5.25;;;1.60;;
79412;SDS011;68863;49.528;11.010;2024-02-15T03:22:22;6.07;;;1.92;;
79412;SDS011;68863;49.528;11.010;2024-02-15T03:24:24;5.40;;;1.75;;
79412;SDS011;68863;49.528;11.010;2024-02-15T03:25:25;4.60;;;1.52;;
79412;SDS011;68863;49.528;11.010;2024-02-15T03:26:29;4.32;;;1.70;;
79412;SDS011;68863;49.528;11.010;2024-02-15T03:27:36;5.72;;;1.88;;
79412;SDS011;68863;49.528;11.010;2024-02-15T03:28:37;6.38;;;2.25;;
79412;SDS011;68863;49.528;11.010;2024-02-15T03:29:38;5.65;;;2.28;;
79412;SDS011;68863;49.528;11.010;2024-02-15T03:30:38;5.47;;;2.08;;
79412;SDS011;68863;49.528;11.010;2024-02-15T03:31:38;5.30;;;1.80;;
79412;SDS011;68863;49.528;11.010;2024-02-15T03:32:39;4.80;;;1.42;;
79412;SDS011;68863;49.528;11.010;2024-02-15T03:33:40;6.18;;;2.05;;
79412;SDS011;68863;49.528;11.010;2024-02-15T03:34:41;5.68;;;1.70;;
79412;SDS011;68863;49.528;11.010;2024-02-15T03:35:42;4.60;;;1.83;;
79412;SDS011;68863;49.528;11.010;2024-02-15T03:36:43;4.35;;;1.65;;
79412;SDS011;68863;49.528;11.010;2024-02-15T03:37:43;3.92;;;1.58;;
79412;SDS011;68863;49.528;11.010;2024-02-15T03:38:44;4.90;;;1.85;;
79412;SDS011;68863;49.528;11.010;2024-02-15T03:39:45;5.25;;;1.98;;
79412;SDS011;68863;49.528;11.010;2024-02-15T03:40:45;5.03;;;1.92;;
79412;SDS011;68863;49.528;11.010;2024-02-15T03:41:45;5.38;;;1.80;;
79412;SDS011;68863;49.528;11.010;2024-02-15T03:42:46;4.68;;;1.90;;
79412;SDS011;68863;49.528;11.010;2024-02-15T03:43:46;5.68;;;2.28;;
79412;SDS011;68863;49.528;11.010;2024-02-15T03:44:47;4.82;;;1.60;;
79412;SDS011;68863;49.528;11.010;2024-02-15T03:45:47;4.82;;;1.60;;
79412;SDS011;68863;49.528;11.010;2024-02-15T03:46:48;5.05;;;1.83;;
79412;SDS011;68863;49.528;11.010;2024-02-15T03:47:54;4.25;;;1.65;;
79412;SDS011;68863;49.528;11.010;2024-02-15T03:48:55;6.10;;;1.80;;
79412;SDS011;68863;49.528;11.010;2024-02-15T03:49:57;4.47;;;1.67;;
79412;SDS011;68863;49.528;11.010;2024-02-15T03:50:58;4.65;;;1.67;;
79412;SDS011;68863;49.528;11.010;2024-02-15T03:51:58;5.50;;;2.13;;
79412;SDS011;68863;49.528;11.010;2024-02-15T03:52:59;5.20;;;1.92;;
79412;SDS011;68863;49.528;11.010;2024-02-15T03:54:00;5.13;;;1.70;;
79412;SDS011;68863;49.528;11.010;2024-02-15T03:55:01;4.63;;;1.65;;
79412;SDS011;68863;49.528;11.010;2024-02-15T03:56:03;7.07;;;2.20;;
79412;SDS011;68863;49.528;11.010;2024-02-15T03:57:04;5.10;;;1.70;;
79412;SDS011;68863;49.528;11.010;2024-02-15T03:58:06;4.35;;;1.73;;
79412;SDS011;68863;49.528;11.010;2024-02-15T03:59:07;6.63;;;1.75;;
79412;SDS011;68863;49.528;11.010;2024-02-15T04:00:08;3.72;;;1.38;;
79412;SDS011;68863;49.528;11.010;2024-02-15T04:01:10;6.00;;;1.92;;
79412;SDS011;68863;49.528;11.010;2024-02-15T04:02:13;6.18;;;1.70;;
79412;SDS011;68863;49.528;11.010;2024-02-15T04:03:14;4.32;;;1.55;;
79412;SDS011;68863;49.528;11.010;2024-02-15T04:04:15;4.95;;;1.85;;
79412;SDS011;68863;49.528;11.010;2024-02-15T04:05:15;5.10;;;1.60;;
79412;SDS011;68863;49.528;11.010;2024-02-15T04:06:15;6.85;;;1.70;;
79412;SDS011;68863;49.528;11.010;2024-02-15T04:07:16;4.25;;;1.40;;
79412;SDS011;68863;49.528;11.010;2024-02-15T04:08:17;4.25;;;1.30;;
79412;SDS011;68863;49.528;11.010;2024-02-15T04:09:18;5.68;;;1.50;;
79412;SDS011;68863;49.528;11.010;2024-02-15T04:10:20;4.40;;;1.50;;
79412;SDS011;68863;49.528;11.010;2024-02-15T04:11:21;5.05;;;1.77;;
79412;SDS011;68863;49.528;11.010;2024-02-15T04:12:21;5.00;;;1.52;;
79412;SDS011;68863;49.528;11.010;2024-02-15T04:13:21;5.35;;;1.63;;
79412;SDS011;68863;49.528;11.010;2024-02-15T04:14:22;5.25;;;1.42;;
79412;SDS011;68863;49.528;11.010;2024-02-15T04:15:23;5.50;;;1.80;;
79412;SDS011;68863;49.528;11.010;2024-02-15T04:16:24;5.18;;;1.67;;
79412;SDS011;68863;49.528;11.010;2024-02-15T04:17:25;5.53;;;1.80;;
79412;SDS011;68863;49.528;11.010;2024-02-15T04:18:25;3.90;;;1.50;;
79412;SDS011;68863;49.528;11.010;2024-02-15T04:19:26;4.55;;;1.50;;
79412;SDS011;68863;49.528;11.010;2024-02-15T04:20:26;6.32;;;1.80;;
79412;SDS011;68863;49.528;11.010;2024-02-15T04:21:27;4.65;;;1.60;;
79412;SDS011;68863;49.528;11.010;2024-02-15T04:22:27;4.50;;;1.60;;
79412;SDS011;68863;49.528;11.010;2024-02-15T04:23:28;5.35;;;1.80;;
79412;SDS011;68863;49.528;11.010;2024-02-15T04:24:29;4.68;;;1.33;;
79412;SDS011;68863;49.528;11.010;2024-02-15T04:25:29;4.53;;;1.58;;
79412;SDS011;68863;49.528;11.010;2024-02-15T04:26:31;4.60;;;1.63;;
79412;SDS011;68863;49.528;11.010;2024-02-15T04:27:32;5.25;;;1.65;;
79412;SDS011;68863;49.528;11.010;2024-02-15T04:28:33;5.50;;;1.70;;
79412;SDS011;68863;49.528;11.010;2024-02-15T04:29:34;3.65;;;1.30;;
79412;SDS011;68863;49.528;11.010;2024-02-15T04:30:34;5.72;;;1.98;;
79412;SDS011;68863;49.528;11.010;2024-02-15T04:31:38;6.22;;;1.65;;
79412;SDS011;68863;49.528;11.010;2024-02-15T04:32:39;7.03;;;2.63;;
79412;SDS011;68863;49.528;11.010;2024-02-15T04:33:40;5.88;;;2.63;;
79412;SDS011;68863;49.528;11.010;2024-02-15T04:34:41;7.65;;;2.40;;
79412;SDS011;68863;49.528;11.010;2024-02-15T04:35:41;6.80;;;2.67;;
79412;SDS011;68863;49.528;11.010;2024-02-15T04:36:46;5.35;;;1.95;;
79412;SDS011;68863;49.528;11.010;2024-02-15T04:37:53;4.82;;;2.13;;
79412;SDS011;68863;49.528;11.010;2024-02-15T04:38:54;6.43;;;2.05;;
79412;SDS011;68863;49.528;11.010;2024-02-15T04:39:54;6.22;;;2.17;;
79412;SDS011;68863;49.528;11.010;2024-02-15T04:40:56;4.95;;;1.75;;
79412;SDS011;68863;49.528;11.010;2024-02-15T04:41:57;6.32;;;2.67;;
79412;SDS011;68863;49.528;11.010;2024-02-15T04:42:58;4.78;;;1.95;;
79412;SDS011;68863;49.528;11.010;2024-02-15T04:43:58;5.10;;;1.70;;
79412;SDS011;68863;49.528;11.010;2024-02-15T04:44:59;5.78;;;2.00;;
79412;SDS011;68863;49.528;11.010;2024-02-15T04:45:59;5.80;;;2.22;;
79412;SDS011;68863;49.528;11.010;2024-02-15T04:47:03;5.22;;;2.33;;
79412;SDS011;68863;49.528;11.010;2024-02-15T04:48:06;6.75;;;2.35;;
79412;SDS011;68863;49.528;11.010;2024-02-15T04:49:07;7.15;;;2.40;;
79412;SDS011;68863;49.528;11.010;2024-02-15T04:50:08;10.52;;;3.58;;
79412;SDS011;68863;49.528;11.010;2024-02-15T04:51:09;9.60;;;3.67;;
79412;SDS011;68863;49.528;11.010;2024-02-15T04:52:10;8.63;;;3.30;;
79412;SDS011;68863;49.528;11.010;2024-02-15T04:53:11;9.70;;;3.08;;
79412;SDS011;68863;49.528;11.010;2024-02-15T04:54:11;8.75;;;3.40;;
79412;SDS011;68863;49.528;11.010;2024-02-15T04:55:13;7.30;;;3.30;;
79412;SDS011;68863;49.528;11.010;2024-02-15T04:56:15;7.80;;;2.83;;
79412;SDS011;68863;49.528;11.010;2024-02-15T04:57:16;7.60;;;2.65;;
79412;SDS011;68863;49.528;11.010;2024-02-15T04:58:17;7.18;;;3.22;;
79412;SDS011;68863;49.528;11.010;2024-02-15T04:59:18;6.95;;;2.63;;
79412;SDS011;68863;49.528;11.010;2024-02-15T05:00:19;7.43;;;2.70;;
79412;SDS011;68863;49.528;11.010;2024-02-15T05:01:21;7.63;;;2.92;;
79412;SDS011;68863;49.528;11.010;2024-02-15T05:02:22;7.93;;;3.05;;
79412;SDS011;68863;49.528;11.010;2024-02-15T05:03:24;7.30;;;2.70;;
79412;SDS011;68863;49.528;11.010;2024-02-15T05:04:24;8.65;;;2.92;;
79412;SDS011;68863;49.528;11.010;2024-02-15T05:05:25;6.90;;;2.30;;
79412;SDS011;68863;49.528;11.010;2024-02-15T05:06:27;7.93;;;2.70;;
79412;SDS011;68863;49.528;11.010;2024-02-15T05:07:29;7.95;;;2.65;;
79412;SDS011;68863;49.528;11.010;2024-02-15T05:08:30;7.18;;;2.47;;
79412;SDS011;68863;49.528;11.010;2024-02-15T05:09:31;6.70;;;2.80;;
79412;SDS011;68863;49.528;11.010;2024-02-15T05:10:32;6.88;;;2.85;;
79412;SDS011;68863;49.528;11.010;2024-02-15T05:11:35;7.82;;;2.63;;
79412;SDS011;68863;49.528;11.010;2024-02-15T05:12:39;7.90;;;2.92;;
79412;SDS011;68863;49.528;11.010;2024-02-15T05:13:40;9.48;;;3.80;;
79412;SDS011;68863;49.528;11.010;2024-02-15T05:14:40;10.25;;;3.50;;
79412;SDS011;68863;49.528;11.010;2024-02-15T05:15:41;8.60;;;3.58;;
79412;SDS011;68863;49.528;11.010;2024-02-15T05:16:41;7.95;;;3.38;;
79412;SDS011;68863;49.528;11.010;2024-02-15T05:17:47;8.75;;;3.83;;
79412;SDS011;68863;49.528;11.010;2024-02-15T05:18:48;7.00;;;3.35;;
79412;SDS011;68863;49.528;11.010;2024-02-15T05:19:51;5.90;;;2.83;;
79412;SDS011;68863;49.528;11.010;2024-02-15T05:20:51;7.63;;;2.78;;
79412;SDS011;68863;49.528;11.010;2024-02-15T05:21:52;6.53;;;2.70;;
79412;SDS011;68863;49.528;11.010;2024-02-15T05:22:53;6.07;;;2.80;;
79412;SDS011;68863;49.528;11.010;2024-02-15T05:23:53;7.57;;;2.83;;
79412;SDS011;68863;49.528;11.010;2024-02-15T05:24:55;6.55;;;2.45;;
79412;SDS011;68863;49.528;11.010;2024-02-15T05:25:56;6.45;;;2.47;;
79412;SDS011;68863;49.528;11.010;2024-02-15T05:26:56;5.68;;;2.38;;
79412;SDS011;68863;49.528;11.010;2024-02-15T05:27:56;5.85;;;2.10;;
79412;SDS011;68863;49.528;11.010;2024-02-15T05:28:57;5.03;;;2.10;;
79412;SDS011;68863;49.528;11.010;2024-02-15T05:29:58;5.75;;;2.38;;
79412;SDS011;68863;49.528;11.010;2024-02-15T05:31:08;6.25;;;1.98;;
79412;SDS011;68863;49.528;11.010;2024-02-15T05:32:12;5.57;;;1.85;;
79412;SDS011;68863;49.528;11.010;2024-02-15T05:33:17;4.97;;;1.73;;
79412;SDS011;68863;49.528;11.010;2024-02-15T05:34:17;6.68;;;2.30;;
79412;SDS011;68863;49.528;11.010;2024-02-15T05:35:18;6.88;;;2.35;;
79412;SDS011;68863;49.528;11.010;2024-02-15T05:36:20;5.85;;;2.00;;
79412;SDS011;68863;49.528;11.010;2024-02-15T05:37:21;6.32;;;2.40;;
79412;SDS011;68863;49.528;11.010;2024-02-15T05:38:23;5.82;;;2.15;;
79412;SDS011;68863;49.528;11.010;2024-02-15T05:39:24;7.40;;;2.03;;
79412;SDS011;68863;49.528;11.010;2024-02-15T05:40:25;5.18;;;2.20;;
79412;SDS011;68863;49.528;11.010;2024-02-15T05:41:25;5.57;;;2.22;;
79412;SDS011;68863;49.528;11.010;2024-02-15T05:42:26;5.75;;;1.95;;
79412;SDS011;68863;49.528;11.010;2024-02-15T05:43:27;5.47;;;2.10;;
79412;SDS011;68863;49.528;11.010;2024-02-15T05:44:27;5.68;;;1.95;;
79412;SDS011;68863;49.528;11.010;2024-02-15T05:45:28;6.45;;;1.80;;
79412;SDS011;68863;49.528;11.010;2024-02-15T05:46:29;7.43;;;1.95;;
79412;SDS011;68863;49.528;11.010;2024-02-15T05:47:30;6.20;;;1.42;;
79412;SDS011;68863;49.528;11.010;2024-02-15T05:48:31;6.07;;;1.92;;
79412;SDS011;68863;49.528;11.010;2024-02-15T05:49:31;5.53;;;2.13;;
79412;SDS011;68863;49.528;11.010;2024-02-15T05:50:33;7.72;;;2.05;;
79412;SDS011;68863;49.528;11.010;2024-02-15T05:51:33;6.20;;;2.42;;
79412;SDS011;68863;49.528;11.010;2024-02-15T05:52:33;6.28;;;2.00;;
79412;SDS011;68863;49.528;11.010;2024-02-15T05:53:35;6.15;;;2.00;;
79412;SDS011;68863;49.528;11.010;2024-02-15T05:54:38;6.45;;;2.42;;
79412;SDS011;68863;49.528;11.010;2024-02-15T05:55:41;6.80;;;2.10;;
79412;SDS011;68863;49.528;11.010;2024-02-15T05:56:44;6.28;;;2.70;;
79412;SDS011;68863;49.528;11.010;2024-02-15T05:57:45;6.95;;;2.20;;
79412;SDS011;68863;49.528;11.010;2024-02-15T05:58:45;7.97;;;2.42;;
79412;SDS011;68863;49.528;11.010;2024-02-15T05:59:46;5.22;;;1.92;;
79412;SDS011;68863;49.528;11.010;2024-02-15T06:00:46;8.93;;;2.13;;
79412;SDS011;68863;49.528;11.010;2024-02-15T06:01:49;5.35;;;1.92;;
79412;SDS011;68863;49.528;11.010;2024-02-15T06:02:50;6.05;;;2.33;;
79412;SDS011;68863;49.528;11.010;2024-02-15T06:03:51;6.03;;;1.73;;
79412;SDS011;68863;49.528;11.010;2024-02-15T06:04:55;5.30;;;1.95;;